createdAt,value
2024-03-26T00:01:28.706Z,6.97
2024-03-26T00:03:56.195Z,6.97
2024-03-26T00:06:23.654Z,6.95
2024-03-26T00:08:51.061Z,6.92
2024-03-26T00:11:18.576Z,6.94
2024-03-26T00:13:46.025Z,6.94
2024-03-26T00:16:13.640Z,6.92
2024-03-26T00:18:41.152Z,6.90
2024-03-26T00:21:08.656Z,6.89
2024-03-26T00:23:36.267Z,6.91
2024-03-26T00:26:03.700Z,6.94
2024-03-26T00:28:31.178Z,6.92
2024-03-26T00:30:58.636Z,6.87
2024-03-26T00:33:26.069Z,6.88
2024-03-26T00:35:53.656Z,6.93
2024-03-26T00:38:21.063Z,6.93
2024-03-26T00:40:48.475Z,6.90
2024-03-26T00:43:15.925Z,6.86
2024-03-26T00:45:43.381Z,6.93
2024-03-26T00:48:11.198Z,6.93
2024-03-26T00:50:38.682Z,6.88
2024-03-26T00:53:06.167Z,6.87
2024-03-26T00:55:33.672Z,6.92
2024-03-26T00:58:01.097Z,6.95
2024-03-26T01:00:28.481Z,6.97
2024-03-26T01:02:55.995Z,6.94
2024-03-26T01:05:23.660Z,6.89
2024-03-26T01:07:51.113Z,6.90
2024-03-26T01:10:18.580Z,6.95
2024-03-26T01:12:45.980Z,6.96
2024-03-26T01:15:13.499Z,6.93
2024-03-26T01:17:40.965Z,6.89
2024-03-26T01:20:08.842Z,6.90
2024-03-26T01:22:36.277Z,6.92
2024-03-26T01:25:04.154Z,6.93
2024-03-26T01:27:31.649Z,6.90
2024-03-26T01:29:59.263Z,6.88
2024-03-26T01:32:27.335Z,6.90
2024-03-26T01:34:54.890Z,6.89
2024-03-26T01:37:22.566Z,6.87
2024-03-26T01:39:49.905Z,6.84
2024-03-26T01:42:17.468Z,6.89
2024-03-26T01:44:45.652Z,6.96
2024-03-26T01:47:13.247Z,6.96
2024-03-26T01:49:40.762Z,6.94
2024-03-26T01:52:08.316Z,6.88
2024-03-26T01:54:35.777Z,6.88
2024-03-26T01:57:03.332Z,6.92
2024-03-26T01:59:30.898Z,6.89
2024-03-26T02:01:59.501Z,6.86
2024-03-26T02:04:26.945Z,6.82
2024-03-26T02:06:54.406Z,6.87
2024-03-26T02:09:22.160Z,6.92
2024-03-26T02:11:49.617Z,6.90
2024-03-26T02:14:18.203Z,6.87
2024-03-26T02:16:46.172Z,6.89
2024-03-26T02:19:14.548Z,6.95
2024-03-26T02:21:42.111Z,6.96
2024-03-26T02:24:09.773Z,6.96
2024-03-26T02:26:37.393Z,6.93
2024-03-26T02:29:04.790Z,6.94
2024-03-26T02:31:32.349Z,6.98
2024-03-26T02:33:59.807Z,6.95
2024-03-26T02:36:27.468Z,6.91
2024-03-26T02:38:54.924Z,6.88
2024-03-26T02:41:22.483Z,6.94
2024-03-26T02:43:49.942Z,6.94
2024-03-26T02:46:17.812Z,6.87
2024-03-26T02:48:45.267Z,6.86
2024-03-26T02:51:12.725Z,6.91
2024-03-26T02:53:40.389Z,6.93
2024-03-26T02:56:08.147Z,6.89
2024-03-26T02:58:35.484Z,6.87
2024-03-26T03:01:12.383Z,6.90
2024-03-26T03:03:39.950Z,6.96
2024-03-26T03:06:10.987Z,6.98
2024-03-26T03:08:38.872Z,6.98
2024-03-26T03:11:06.415Z,6.97
2024-03-26T03:13:33.971Z,6.95
2024-03-26T03:16:01.430Z,6.96
2024-03-26T03:18:28.789Z,6.95
2024-03-26T03:20:56.351Z,6.88
2024-03-26T03:23:23.805Z,6.86
2024-03-26T03:25:55.158Z,6.88
2024-03-26T03:28:22.825Z,6.89
2024-03-26T03:30:50.278Z,6.88
2024-03-26T03:33:17.731Z,6.85
2024-03-26T03:35:45.187Z,6.86
2024-03-26T03:38:12.593Z,6.89
2024-03-26T03:40:40.001Z,6.90
2024-03-26T03:43:07.455Z,6.87
2024-03-26T03:47:43.064Z,6.48
2024-03-26T03:50:10.584Z,6.78
2024-03-26T03:52:37.938Z,6.87
2024-03-26T03:55:05.890Z,6.87
2024-03-26T03:57:33.257Z,6.83
2024-03-26T04:00:01.974Z,6.79
2024-03-26T04:02:39.281Z,6.83
2024-03-26T04:05:07.304Z,6.88
2024-03-26T04:07:35.581Z,6.92
2024-03-26T04:10:04.311Z,6.92
2024-03-26T04:12:32.043Z,6.92
2024-03-26T04:14:59.565Z,6.88
2024-03-26T04:17:27.275Z,6.89
2024-03-26T04:20:03.220Z,6.93
2024-03-26T04:22:33.405Z,6.93
2024-03-26T04:25:01.505Z,6.91
2024-03-26T04:27:28.873Z,6.89
2024-03-26T04:29:56.423Z,6.91
2024-03-26T04:32:23.925Z,6.96
2024-03-26T04:34:51.436Z,6.96
2024-03-26T04:37:19.414Z,6.95
2024-03-26T04:39:47.477Z,6.95
2024-03-26T04:42:14.937Z,6.98
2024-03-26T04:44:42.339Z,7.01
2024-03-26T04:47:09.952Z,7.02
2024-03-26T04:49:37.363Z,7.03
2024-03-26T04:52:04.873Z,7.01
2024-03-26T04:54:32.280Z,7.02
2024-03-26T04:56:59.804Z,7.04
2024-03-26T04:59:27.291Z,7.06
2024-03-26T05:01:54.801Z,7.09
2024-03-26T05:04:22.871Z,7.12
2024-03-26T05:06:50.533Z,7.12
2024-03-26T05:09:17.991Z,7.16
2024-03-26T05:11:45.452Z,7.22
2024-03-26T05:14:13.053Z,7.29
2024-03-26T05:16:40.466Z,7.24
2024-03-26T05:19:07.927Z,7.23
2024-03-26T05:21:35.401Z,7.20
2024-03-26T05:24:14.209Z,7.23
2024-03-26T05:26:49.002Z,7.28
2024-03-26T05:29:22.606Z,7.30
2024-03-26T05:31:53.514Z,7.30
2024-03-26T05:34:25.664Z,7.29
2024-03-26T05:36:54.121Z,7.34
2024-03-26T05:39:22.745Z,7.42
2024-03-26T05:41:51.947Z,7.47
2024-03-26T05:44:19.320Z,7.46
2024-03-26T05:46:46.761Z,7.46
2024-03-26T05:49:15.242Z,7.44
2024-03-26T05:51:43.316Z,7.47
2024-03-26T05:54:10.746Z,7.53
2024-03-26T05:56:38.878Z,7.58
2024-03-26T05:59:06.479Z,7.59
2024-03-26T06:01:34.121Z,7.57
2024-03-26T06:04:02.786Z,7.54
2024-03-26T06:06:30.443Z,7.59
2024-03-26T06:08:57.844Z,7.65
2024-03-26T06:11:25.492Z,7.68
2024-03-26T06:13:52.945Z,7.65
2024-03-26T06:16:20.712Z,7.63
2024-03-26T06:18:48.173Z,7.62
2024-03-26T06:21:15.730Z,7.67
2024-03-26T06:23:43.903Z,7.70
2024-03-26T06:26:11.574Z,7.69
2024-03-26T06:28:39.122Z,7.69
2024-03-26T06:31:06.533Z,7.67
2024-03-26T06:33:34.042Z,7.69
2024-03-26T06:36:01.556Z,7.72
2024-03-26T06:38:29.209Z,7.76
2024-03-26T06:40:58.516Z,7.78
2024-03-26T06:43:25.966Z,7.78
2024-03-26T06:45:54.194Z,7.73
2024-03-26T06:48:21.654Z,7.78
2024-03-26T06:50:49.277Z,7.86
2024-03-26T06:53:16.714Z,7.92
2024-03-26T06:55:44.337Z,7.94
2024-03-26T06:58:11.744Z,7.96
2024-03-26T07:00:39.165Z,7.97
2024-03-26T07:03:07.577Z,7.95
2024-03-26T07:05:35.147Z,7.98
2024-03-26T07:08:03.873Z,8.09
2024-03-26T07:10:31.436Z,8.17
2024-03-26T07:12:59.099Z,8.21
2024-03-26T07:15:26.633Z,8.22
2024-03-26T07:17:58.597Z,8.23
2024-03-26T07:20:28.941Z,8.24
2024-03-26T07:23:00.578Z,8.25
2024-03-26T07:25:28.333Z,8.31
2024-03-26T07:27:58.297Z,8.38
2024-03-26T07:30:25.954Z,8.45
2024-03-26T07:32:53.358Z,8.49
2024-03-26T07:35:21.477Z,8.57
2024-03-26T07:37:50.201Z,8.62
2024-03-26T07:40:17.554Z,8.65
2024-03-26T07:42:45.274Z,8.67
2024-03-26T07:45:15.737Z,8.70
2024-03-26T07:47:43.452Z,8.75
2024-03-26T07:50:11.643Z,8.88
2024-03-26T07:52:39.204Z,8.92
2024-03-26T07:55:07.007Z,8.92
2024-03-26T07:57:34.908Z,8.92
2024-03-26T08:00:02.730Z,8.92
2024-03-26T08:02:38.983Z,8.96
2024-03-26T08:05:08.730Z,9.01
2024-03-26T08:07:38.608Z,9.05
2024-03-26T08:10:07.392Z,9.08
2024-03-26T08:12:35.467Z,9.12
2024-03-26T08:15:03.285Z,9.17
2024-03-26T08:17:31.921Z,9.29
2024-03-26T08:19:59.599Z,9.40
2024-03-26T08:22:27.332Z,9.46
2024-03-26T08:24:55.376Z,9.50
2024-03-26T08:27:22.908Z,9.52
2024-03-26T08:29:52.291Z,9.55
2024-03-26T08:32:19.964Z,9.62
2024-03-26T08:34:47.543Z,9.68
2024-03-26T08:37:15.251Z,9.70
2024-03-26T08:39:43.661Z,9.73
2024-03-26T08:42:12.629Z,9.78
2024-03-26T08:44:40.130Z,9.83
2024-03-26T08:47:07.947Z,9.85
2024-03-26T08:49:35.506Z,9.85
2024-03-26T08:52:03.273Z,9.85
2024-03-26T08:54:30.731Z,9.87
2024-03-26T08:56:58.350Z,9.90
2024-03-26T08:59:26.822Z,9.95
2024-03-26T09:01:54.330Z,9.99
2024-03-26T09:04:23.960Z,10.04
2024-03-26T09:06:52.939Z,10.11
2024-03-26T09:09:20.452Z,10.13
2024-03-26T09:11:50.923Z,10.14
2024-03-26T09:14:18.636Z,10.16
2024-03-26T09:16:46.493Z,10.19
2024-03-26T09:19:14.485Z,10.22
2024-03-26T09:21:43.971Z,10.25
2024-03-26T09:24:12.225Z,10.25
2024-03-26T09:26:39.967Z,10.30
2024-03-26T09:29:07.476Z,10.36
2024-03-26T09:31:35.188Z,10.43
2024-03-26T09:34:02.757Z,10.45
2024-03-26T09:36:30.309Z,10.51
2024-03-26T09:39:06.557Z,10.54
2024-03-26T09:41:37.479Z,10.62
2024-03-26T09:44:05.172Z,10.70
2024-03-26T09:46:37.440Z,10.72
2024-03-26T09:49:05.825Z,10.73
2024-03-26T09:51:33.995Z,10.76
2024-03-26T09:54:01.699Z,10.79
2024-03-26T09:56:29.425Z,10.89
2024-03-26T09:58:56.989Z,10.95
2024-03-26T10:01:26.137Z,11.02
2024-03-26T10:03:54.156Z,11.08
2024-03-26T10:06:21.864Z,11.15
2024-03-26T10:08:49.395Z,11.25
2024-03-26T10:11:16.760Z,11.38
2024-03-26T10:13:44.175Z,11.48
2024-03-26T10:16:11.832Z,11.55
2024-03-26T10:18:39.356Z,11.65
2024-03-26T10:21:07.888Z,11.72
2024-03-26T10:23:35.968Z,11.82
2024-03-26T10:26:03.619Z,11.90
2024-03-26T10:28:31.181Z,11.94
2024-03-26T10:30:58.853Z,11.96
2024-03-26T10:33:26.711Z,11.97
2024-03-26T10:35:55.911Z,11.99
2024-03-26T10:38:24.994Z,11.98
2024-03-26T10:41:11.200Z,12.03
2024-03-26T10:43:39.784Z,12.13
2024-03-26T10:46:08.424Z,12.16
2024-03-26T10:48:39.717Z,12.19
2024-03-26T10:51:12.102Z,12.22
2024-03-26T10:53:42.251Z,12.21
2024-03-26T10:56:10.317Z,12.20
2024-03-26T10:58:37.822Z,12.16
2024-03-26T11:01:06.332Z,12.15
2024-03-26T11:03:33.837Z,12.17
2024-03-26T11:06:05.477Z,12.16
2024-03-26T11:08:42.740Z,12.14
2024-03-26T11:11:14.299Z,12.16
2024-03-26T11:13:42.071Z,12.15
2024-03-26T11:16:11.007Z,12.18
2024-03-26T11:18:40.141Z,12.19
2024-03-26T11:21:09.653Z,12.17
2024-03-26T11:23:38.392Z,12.18
2024-03-26T11:26:06.092Z,12.14
2024-03-26T11:28:33.859Z,12.06
2024-03-26T11:31:02.650Z,12.00
2024-03-26T11:33:33.523Z,12.02
2024-03-26T11:36:03.124Z,12.10
2024-03-26T11:38:30.650Z,12.15
2024-03-26T11:40:58.819Z,12.17
2024-03-26T11:43:26.389Z,12.15
2024-03-26T11:45:59.442Z,12.18
2024-03-26T11:48:27.823Z,12.23
2024-03-26T11:50:57.218Z,12.28
2024-03-26T11:53:25.127Z,12.33
2024-03-26T11:55:55.262Z,12.35
2024-03-26T11:58:27.617Z,12.39
2024-03-26T12:00:57.909Z,12.40
2024-03-26T12:03:25.459Z,12.42
2024-03-26T12:05:53.272Z,12.50
2024-03-26T12:08:21.080Z,12.60
2024-03-26T12:10:48.700Z,12.67
2024-03-26T12:13:16.766Z,12.79
2024-03-26T12:15:44.345Z,12.91
2024-03-26T12:18:11.988Z,12.98
2024-03-26T12:20:39.398Z,13.04
2024-03-26T12:23:07.106Z,13.08
2024-03-26T12:25:34.722Z,13.17
2024-03-26T12:28:03.951Z,13.22
2024-03-26T12:30:35.379Z,13.27
2024-03-26T12:33:03.034Z,13.30
2024-03-26T12:35:31.406Z,13.31
2024-03-26T12:37:58.926Z,13.33
2024-03-26T12:40:26.594Z,13.40
2024-03-26T12:42:54.141Z,13.49
2024-03-26T12:45:21.766Z,13.53
2024-03-26T12:47:49.883Z,13.57
2024-03-26T12:50:17.435Z,13.56
2024-03-26T12:52:44.999Z,13.53
2024-03-26T12:55:14.347Z,13.61
2024-03-26T12:57:43.439Z,13.68
2024-03-26T13:00:11.669Z,13.77
2024-03-26T13:02:42.667Z,13.81
2024-03-26T13:05:12.027Z,13.82
2024-03-26T13:07:42.651Z,13.90
2024-03-26T13:10:13.140Z,14.00
2024-03-26T13:12:42.895Z,14.08
2024-03-26T13:15:13.681Z,14.15
2024-03-26T13:17:49.713Z,14.26
2024-03-26T13:20:17.887Z,14.47
2024-03-26T13:22:48.361Z,15.30
2024-03-26T13:25:18.599Z,16.56
2024-03-26T13:27:46.027Z,17.87
2024-03-26T13:30:13.747Z,18.83
2024-03-26T13:32:41.442Z,19.58
2024-03-26T13:35:10.603Z,20.40
2024-03-26T13:37:38.173Z,21.01
2024-03-26T13:40:09.526Z,21.38
2024-03-26T13:42:42.358Z,21.69
2024-03-26T13:45:10.932Z,21.96
2024-03-26T13:47:39.837Z,22.32
2024-03-26T13:50:08.193Z,22.57
2024-03-26T13:52:36.195Z,22.61
2024-03-26T13:55:05.694Z,22.54
2024-03-26T13:57:36.662Z,22.35
2024-03-26T14:00:11.934Z,22.35
2024-03-26T14:02:39.428Z,22.48
2024-03-26T14:05:09.497Z,22.67
2024-03-26T14:07:36.964Z,22.92
2024-03-26T14:10:06.637Z,23.14
2024-03-26T14:12:34.454Z,23.34
2024-03-26T14:15:02.016Z,23.37
2024-03-26T14:17:29.832Z,23.28
2024-03-26T14:19:57.392Z,23.21
2024-03-26T14:22:25.157Z,23.21
2024-03-26T14:24:53.099Z,23.57
2024-03-26T14:27:21.863Z,23.99
2024-03-26T14:29:49.712Z,24.11
2024-03-26T14:32:18.610Z,24.00
2024-03-26T14:34:46.196Z,23.65
2024-03-26T14:37:14.400Z,23.30
2024-03-26T14:39:41.920Z,23.11
2024-03-26T14:42:09.431Z,23.01
2024-03-26T14:44:38.012Z,23.19
2024-03-26T14:47:05.670Z,23.25
2024-03-26T14:49:33.328Z,23.15
2024-03-26T14:52:03.777Z,23.11
2024-03-26T14:54:40.753Z,22.89
2024-03-26T14:57:09.222Z,22.64
2024-03-26T14:59:37.595Z,22.67
2024-03-26T15:02:07.777Z,22.74
2024-03-26T15:04:36.955Z,22.72
2024-03-26T15:07:09.231Z,22.65
2024-03-26T15:09:36.961Z,22.41
2024-03-26T15:12:04.739Z,22.10
2024-03-26T15:14:32.233Z,21.71
2024-03-26T15:16:59.841Z,21.51
2024-03-26T15:19:27.364Z,21.41
2024-03-26T15:21:55.055Z,21.43
2024-03-26T15:24:23.099Z,21.38
2024-03-26T15:27:09.417Z,21.31
2024-03-26T15:29:58.391Z,21.12
2024-03-26T15:32:29.306Z,20.91
2024-03-26T15:34:57.101Z,20.78
2024-03-26T15:37:24.615Z,20.64
2024-03-26T15:39:52.522Z,20.49
2024-03-26T15:42:21.005Z,20.36
2024-03-26T15:44:48.583Z,20.21
2024-03-26T15:47:16.316Z,20.00
2024-03-26T15:49:47.881Z,19.67
2024-03-26T15:52:15.424Z,19.37
2024-03-26T15:54:43.074Z,18.96
2024-03-26T15:57:16.304Z,18.27
2024-03-26T15:59:45.030Z,17.58
2024-03-26T16:02:14.252Z,16.93
2024-03-26T16:05:54.864Z,15.81
2024-03-26T16:08:22.724Z,15.56
2024-03-26T16:11:12.308Z,15.24
2024-03-26T16:13:45.601Z,14.91
2024-03-26T16:16:13.823Z,14.64
2024-03-26T16:18:47.225Z,14.43
2024-03-26T16:21:16.685Z,14.24
2024-03-26T16:23:44.228Z,14.06
2024-03-26T16:26:15.245Z,13.90
2024-03-26T16:28:55.528Z,13.76
2024-03-26T16:31:27.533Z,13.62
2024-03-26T16:34:01.828Z,13.50
2024-03-26T16:36:30.305Z,13.39
2024-03-26T16:39:04.209Z,13.29
2024-03-26T16:41:36.052Z,13.22
2024-03-26T16:44:03.929Z,13.14
2024-03-26T16:46:31.336Z,13.05
2024-03-26T16:48:59.247Z,12.98
2024-03-26T16:51:26.911Z,12.93
2024-03-26T16:53:54.827Z,12.87
2024-03-26T16:56:22.442Z,12.81
2024-03-26T16:58:49.928Z,12.75
2024-03-26T17:01:17.567Z,12.69
2024-03-26T17:03:46.144Z,12.60
2024-03-26T17:06:14.099Z,12.54
2024-03-26T17:08:41.725Z,12.46
2024-03-26T17:11:09.606Z,12.36
2024-03-26T17:13:40.422Z,12.29
2024-03-26T17:16:07.911Z,12.21
2024-03-26T17:18:36.167Z,12.10
2024-03-26T17:21:05.260Z,12.00
2024-03-26T17:23:32.766Z,11.88
2024-03-26T17:26:01.105Z,11.74
2024-03-26T17:28:29.543Z,11.62
2024-03-26T17:30:57.185Z,11.52
2024-03-26T17:33:26.740Z,11.44
2024-03-26T17:35:54.350Z,11.40
2024-03-26T17:38:21.812Z,11.38
2024-03-26T17:40:49.274Z,11.32
2024-03-26T17:43:16.735Z,11.28
2024-03-26T17:45:44.297Z,11.22
2024-03-26T17:48:11.859Z,11.16
2024-03-26T17:50:39.359Z,11.08
2024-03-26T17:53:07.337Z,11.01
2024-03-26T17:55:35.881Z,10.95
2024-03-26T17:58:03.524Z,10.92
2024-03-26T18:00:31.087Z,10.85
2024-03-26T18:02:58.550Z,10.76
2024-03-26T18:05:26.004Z,10.68
2024-03-26T18:07:53.564Z,10.61
2024-03-26T18:10:22.144Z,10.55
2024-03-26T18:12:50.113Z,10.48
2024-03-26T18:15:17.682Z,10.43
2024-03-26T18:17:46.465Z,10.37
2024-03-26T18:20:14.023Z,10.33
2024-03-26T18:22:41.386Z,10.28
2024-03-26T18:25:09.536Z,10.23
2024-03-26T18:27:38.234Z,10.16
2024-03-26T18:30:06.345Z,10.11
2024-03-26T18:32:33.867Z,10.02
2024-03-26T18:35:01.736Z,9.94
2024-03-26T18:37:29.320Z,9.89
2024-03-26T18:39:56.860Z,9.82
2024-03-26T18:42:24.414Z,9.76
2024-03-26T18:44:52.078Z,9.71
2024-03-26T18:47:19.487Z,9.64
2024-03-26T18:49:48.038Z,9.60
2024-03-26T18:52:15.482Z,9.56
2024-03-26T18:54:43.053Z,9.49
2024-03-26T18:57:14.134Z,9.43
2024-03-26T18:59:41.705Z,9.36
2024-03-26T19:02:09.246Z,9.27
2024-03-26T19:04:36.757Z,9.21
2024-03-26T19:07:06.258Z,9.12
2024-03-26T19:09:33.823Z,9.02
2024-03-26T19:12:01.284Z,8.94
2024-03-26T19:14:28.840Z,8.85
2024-03-26T19:16:56.441Z,8.78
2024-03-26T19:19:25.297Z,8.72
2024-03-26T19:21:52.851Z,8.66
2024-03-26T19:24:20.304Z,8.60
2024-03-26T19:26:48.709Z,8.52
2024-03-26T19:29:16.654Z,8.43
2024-03-26T19:31:44.212Z,8.35
2024-03-26T19:34:12.005Z,8.27
2024-03-26T19:36:39.398Z,8.24
2024-03-26T19:39:06.999Z,8.22
2024-03-26T19:41:34.455Z,8.18
2024-03-26T19:44:02.017Z,8.14
2024-03-26T19:46:29.716Z,8.08
2024-03-26T19:48:57.438Z,8.03
2024-03-26T19:51:25.357Z,7.98
2024-03-26T19:53:53.379Z,7.92
2024-03-26T19:56:20.943Z,7.87
2024-03-26T19:58:48.445Z,7.79
2024-03-26T20:01:16.981Z,7.75
2024-03-26T20:03:44.646Z,7.70
2024-03-26T20:06:13.143Z,7.64
2024-03-26T20:08:44.098Z,7.57
2024-03-26T20:11:12.448Z,7.52
2024-03-26T20:13:40.838Z,7.48
2024-03-26T20:16:08.293Z,7.46
2024-03-26T20:18:36.045Z,7.48
2024-03-26T20:21:03.710Z,7.52
2024-03-26T20:23:31.988Z,7.56
2024-03-26T20:26:04.103Z,7.60
2024-03-26T20:28:32.271Z,7.63
2024-03-26T20:31:12.029Z,7.62
2024-03-26T20:33:40.401Z,7.57
2024-03-26T20:36:08.630Z,7.50
2024-03-26T20:38:36.140Z,7.45
2024-03-26T20:41:05.288Z,7.39
2024-03-26T20:43:33.762Z,7.32
2024-03-26T20:46:07.571Z,7.25
2024-03-26T20:48:35.224Z,7.17
2024-03-26T20:51:09.603Z,7.10
2024-03-26T20:53:37.260Z,7.05
2024-03-26T20:56:11.318Z,7.01
2024-03-26T20:58:38.993Z,6.97
2024-03-26T21:01:06.647Z,6.91
2024-03-26T21:03:36.570Z,6.86
2024-03-26T21:06:04.843Z,6.79
2024-03-26T21:08:32.344Z,6.72
2024-03-26T21:11:00.881Z,6.65
2024-03-26T21:13:28.326Z,6.63
2024-03-26T21:16:02.766Z,6.60
2024-03-26T21:18:30.605Z,6.54
2024-03-26T21:20:58.362Z,6.48
2024-03-26T21:23:25.958Z,6.45
2024-03-26T21:25:53.510Z,6.48
2024-03-26T21:28:21.271Z,6.52
2024-03-26T21:30:58.708Z,6.63
2024-03-26T21:33:26.236Z,6.71
2024-03-26T21:35:55.024Z,6.77
2024-03-26T21:38:22.471Z,6.81
2024-03-26T21:40:59.822Z,6.81
2024-03-26T21:43:27.418Z,6.81
2024-03-26T21:45:54.878Z,6.80
2024-03-26T21:48:23.084Z,6.77
2024-03-26T21:51:00.136Z,6.70
2024-03-26T21:53:28.107Z,6.61
2024-03-26T21:56:16.679Z,6.56
2024-03-26T21:58:44.225Z,6.44
2024-03-26T22:01:12.184Z,6.30
2024-03-26T22:03:39.651Z,6.22
2024-03-26T22:06:14.316Z,6.16
2024-03-26T22:08:42.265Z,6.06
2024-03-26T22:11:12.466Z,6.01
2024-03-26T22:13:43.400Z,5.92
2024-03-26T22:16:10.965Z,5.81
2024-03-26T22:18:38.524Z,5.73
2024-03-26T22:21:06.023Z,5.66
2024-03-26T22:23:33.536Z,5.56
2024-03-26T22:26:08.208Z,5.51
2024-03-26T22:28:36.000Z,5.47
2024-03-26T22:31:04.005Z,5.45
2024-03-26T22:33:31.492Z,5.43
2024-03-26T22:35:59.065Z,5.46
2024-03-26T22:38:26.489Z,5.53
2024-03-26T22:40:58.026Z,5.59
2024-03-26T22:43:25.737Z,5.64
2024-03-26T22:46:00.002Z,5.66
2024-03-26T22:48:27.971Z,5.69
2024-03-26T22:50:55.718Z,5.68
2024-03-26T22:53:23.733Z,5.64
2024-03-26T22:56:05.333Z,5.58
2024-03-26T22:58:34.266Z,5.49
2024-03-26T23:01:05.791Z,5.42
2024-03-26T23:03:33.608Z,5.38
2024-03-26T23:06:01.950Z,5.32
2024-03-26T23:08:29.454Z,5.26
2024-03-26T23:10:57.010Z,5.20
2024-03-26T23:13:25.087Z,5.16
2024-03-26T23:15:52.560Z,5.16
2024-03-26T23:18:20.717Z,5.12
2024-03-26T23:20:48.273Z,5.10
2024-03-26T23:23:17.086Z,5.08
2024-03-26T23:25:44.838Z,5.05
2024-03-26T23:28:12.600Z,4.99
2024-03-26T23:30:40.969Z,4.95
2024-03-26T23:33:08.436Z,4.95
2024-03-26T23:35:36.092Z,4.98
2024-03-26T23:38:04.008Z,5.00
2024-03-26T23:40:31.520Z,5.05
2024-03-26T23:42:59.229Z,5.10
2024-03-26T23:45:29.451Z,5.14
2024-03-26T23:47:57.103Z,5.21
2024-03-26T23:50:25.137Z,5.24
2024-03-26T23:52:55.886Z,5.21
2024-03-26T23:55:27.810Z,5.17
2024-03-26T23:58:04.881Z,5.14
